createdAt,value
2022-12-17T00:01:44.008Z,20.00
2022-12-17T00:04:29.357Z,20.42
2022-12-17T00:07:14.825Z,20.23
2022-12-17T00:10:00.257Z,18.80
2022-12-17T00:12:45.683Z,19.97
2022-12-17T00:15:31.212Z,19.20
2022-12-17T00:18:24.212Z,18.70
2022-12-17T00:21:18.359Z,20.05
2022-12-17T00:24:04.329Z,18.23
2022-12-17T00:26:50.420Z,19.50
2022-12-17T00:29:36.146Z,19.15
2022-12-17T00:32:22.251Z,20.00
2022-12-17T00:35:07.663Z,19.83
2022-12-17T00:37:53.274Z,20.90
2022-12-17T00:40:38.797Z,22.37
2022-12-17T00:43:27.193Z,20.95
2022-12-17T00:46:13.606Z,21.62
2022-12-17T00:48:59.772Z,23.23
2022-12-17T00:51:45.669Z,21.50
2022-12-17T00:54:31.417Z,21.07
2022-12-17T00:57:16.860Z,20.85
2022-12-17T01:00:02.274Z,22.65
2022-12-17T01:02:49.043Z,21.87
2022-12-17T01:05:34.882Z,20.55
2022-12-17T01:08:29.225Z,21.27
2022-12-17T01:11:22.125Z,20.45
2022-12-17T01:14:07.817Z,20.45
2022-12-17T01:16:53.629Z,20.90
2022-12-17T01:19:41.668Z,21.05
2022-12-17T01:22:27.382Z,20.80
2022-12-17T01:25:12.592Z,21.70
2022-12-17T01:27:58.042Z,21.08
2022-12-17T01:30:47.202Z,20.92
2022-12-17T01:33:32.669Z,20.88
2022-12-17T01:36:18.321Z,21.67
2022-12-17T01:39:03.831Z,20.37
2022-12-17T01:41:49.210Z,21.42
2022-12-17T01:45:03.233Z,20.55
2022-12-17T01:48:05.740Z,21.42
2022-12-17T01:50:55.353Z,21.23
2022-12-17T01:53:47.536Z,19.10
2022-12-17T01:56:33.290Z,20.48
2022-12-17T01:59:19.418Z,20.58
2022-12-17T02:02:04.707Z,19.77
2022-12-17T02:04:50.504Z,18.17
2022-12-17T02:07:51.421Z,18.58
2022-12-17T02:11:08.208Z,19.85
2022-12-17T02:13:59.001Z,19.02
2022-12-17T02:17:00.592Z,19.37
2022-12-17T02:20:07.815Z,19.30
2022-12-17T02:23:16.449Z,18.58
2022-12-17T02:26:10.167Z,19.37
2022-12-17T02:29:00.107Z,20.27
2022-12-17T02:31:48.867Z,19.92
2022-12-17T02:34:34.207Z,19.10
2022-12-17T02:37:19.743Z,18.37
2022-12-17T02:40:05.383Z,18.85
2022-12-17T02:42:52.051Z,18.40
2022-12-17T02:45:38.443Z,19.40
2022-12-17T02:48:26.246Z,18.97
2022-12-17T02:51:12.286Z,18.35
2022-12-17T02:54:08.796Z,19.58
2022-12-17T02:56:54.373Z,18.83
2022-12-17T02:59:40.255Z,19.90
2022-12-17T03:02:25.813Z,19.33
2022-12-17T03:05:42.674Z,17.27
2022-12-17T03:08:16.647Z,17.35
2022-12-17T03:11:02.192Z,15.13
2022-12-17T03:13:48.762Z,20.27
2022-12-17T03:16:37.984Z,18.67
2022-12-17T03:19:23.873Z,18.27
2022-12-17T03:22:09.275Z,18.50
2022-12-17T03:24:54.449Z,18.80
2022-12-17T03:27:40.192Z,19.33
2022-12-17T03:30:26.254Z,18.57
2022-12-17T03:33:11.474Z,18.17
2022-12-17T03:35:56.860Z,18.30
2022-12-17T03:38:42.497Z,18.15
2022-12-17T03:41:27.646Z,17.45
2022-12-17T03:44:12.840Z,17.73
2022-12-17T03:47:02.973Z,17.90
2022-12-17T03:49:48.202Z,17.08
2022-12-17T03:52:33.592Z,16.67
2022-12-17T03:55:18.947Z,18.25
2022-12-17T03:58:04.418Z,18.00
2022-12-17T04:00:49.645Z,16.48
2022-12-17T04:03:35.716Z,17.10
2022-12-17T04:06:21.565Z,17.60
2022-12-17T04:09:06.687Z,17.23
2022-12-17T04:11:52.401Z,17.50
2022-12-17T04:14:37.792Z,18.00
2022-12-17T04:17:22.955Z,16.40
2022-12-17T04:20:08.330Z,16.23
2022-12-17T04:22:53.813Z,15.23
2022-12-17T04:25:39.596Z,17.07
2022-12-17T04:28:24.774Z,16.42
2022-12-17T04:31:10.651Z,17.65
2022-12-17T04:33:55.884Z,17.12
2022-12-17T04:36:41.527Z,17.90
2022-12-17T04:39:27.034Z,18.83
2022-12-17T04:42:12.293Z,18.10
2022-12-17T04:44:57.553Z,18.00
2022-12-17T04:47:42.676Z,18.10
2022-12-17T04:50:27.927Z,18.52
2022-12-17T04:53:24.838Z,17.67
2022-12-17T04:56:13.213Z,16.95
2022-12-17T04:58:58.301Z,16.62
2022-12-17T05:01:44.092Z,16.35
2022-12-17T05:04:29.644Z,17.45
2022-12-17T05:07:15.287Z,17.00
2022-12-17T05:10:00.607Z,16.98
2022-12-17T05:12:46.173Z,14.55
2022-12-17T05:15:31.623Z,18.15
2022-12-17T05:18:27.629Z,18.23
2022-12-17T05:21:13.426Z,17.47
2022-12-17T05:23:59.080Z,15.35
2022-12-17T05:26:46.917Z,15.25
2022-12-17T05:29:32.671Z,17.30
2022-12-17T05:32:18.301Z,17.02
2022-12-17T05:35:03.462Z,17.40
2022-12-17T05:37:48.970Z,17.27
2022-12-17T05:40:36.134Z,17.15
2022-12-17T05:43:28.731Z,17.10
2022-12-17T05:46:14.371Z,14.48
2022-12-17T05:48:59.881Z,16.67
2022-12-17T05:51:45.466Z,16.40
2022-12-17T05:54:31.241Z,15.75
2022-12-17T05:57:16.994Z,16.10
2022-12-17T06:00:02.250Z,16.33
2022-12-17T06:02:48.690Z,13.90
2022-12-17T06:05:34.425Z,16.12
2022-12-17T06:08:25.508Z,16.60
2022-12-17T06:11:11.848Z,15.27
2022-12-17T06:13:57.575Z,16.87
2022-12-17T06:16:43.044Z,15.93
2022-12-17T06:19:28.940Z,15.90
2022-12-17T06:22:14.577Z,16.52
2022-12-17T06:25:00.044Z,14.20
2022-12-17T06:27:45.427Z,16.67
2022-12-17T06:30:31.347Z,16.60
2022-12-17T06:33:25.001Z,16.50
2022-12-17T06:36:15.426Z,15.45
2022-12-17T06:39:05.425Z,13.68
2022-12-17T06:41:51.271Z,13.70
2022-12-17T06:44:57.609Z,14.70
2022-12-17T06:47:42.754Z,14.20
2022-12-17T06:50:28.224Z,13.48
2022-12-17T06:53:19.095Z,15.00
2022-12-17T06:56:04.373Z,16.10
2022-12-17T06:58:50.501Z,13.40
2022-12-17T07:01:36.089Z,13.13
2022-12-17T07:04:22.178Z,14.77
2022-12-17T07:07:07.747Z,15.02
2022-12-17T07:09:53.218Z,14.68
2022-12-17T07:12:39.672Z,13.47
2022-12-17T07:15:25.427Z,14.98
2022-12-17T07:18:22.157Z,13.62
2022-12-17T07:21:11.479Z,13.02
2022-12-17T07:23:57.088Z,13.65
2022-12-17T07:27:02.451Z,13.73
2022-12-17T07:29:47.878Z,12.77
2022-12-17T07:32:33.061Z,13.38
2022-12-17T07:35:18.517Z,13.88
2022-12-17T07:38:03.805Z,13.45
2022-12-17T07:40:48.969Z,14.07
2022-12-17T07:43:34.515Z,12.23
2022-12-17T07:46:20.421Z,13.65
2022-12-17T07:49:06.138Z,13.30
2022-12-17T07:51:51.400Z,12.52
2022-12-17T07:54:36.770Z,13.70
2022-12-17T07:57:22.182Z,9.93
2022-12-17T08:00:08.206Z,13.35
2022-12-17T08:02:54.025Z,13.40
2022-12-17T08:05:39.603Z,13.23
2022-12-17T08:08:32.910Z,13.17
2022-12-17T08:11:18.749Z,10.00
2022-12-17T08:14:04.470Z,13.70
2022-12-17T08:16:50.089Z,14.23
2022-12-17T08:19:35.623Z,13.05
2022-12-17T08:22:21.611Z,13.63
2022-12-17T08:25:06.772Z,12.45
2022-12-17T08:27:52.494Z,12.70
2022-12-17T08:30:37.863Z,14.38
2022-12-17T08:33:24.571Z,14.05
2022-12-17T08:36:12.372Z,13.27
2022-12-17T08:38:57.520Z,12.88
2022-12-17T08:41:43.194Z,13.10
2022-12-17T08:44:29.152Z,12.13
2022-12-17T08:47:14.813Z,12.52
2022-12-17T08:50:00.015Z,12.73
2022-12-17T08:52:45.156Z,14.07
2022-12-17T08:55:30.812Z,14.35
2022-12-17T08:58:17.576Z,13.55
2022-12-17T09:01:03.574Z,13.60
2022-12-17T09:03:48.934Z,13.17
2022-12-17T09:06:38.908Z,13.60
2022-12-17T09:09:24.824Z,14.23
2022-12-17T09:12:10.013Z,14.27
2022-12-17T09:14:55.423Z,13.32
2022-12-17T09:17:40.810Z,15.03
2022-12-17T09:20:29.512Z,13.52
2022-12-17T09:23:16.236Z,15.75
2022-12-17T09:26:01.823Z,13.55
2022-12-17T09:28:47.303Z,15.57
2022-12-17T09:31:37.189Z,13.90
2022-12-17T09:34:22.966Z,15.27
2022-12-17T09:37:08.713Z,15.80
2022-12-17T09:39:54.290Z,15.65
2022-12-17T09:43:07.857Z,16.73
2022-12-17T09:46:14.595Z,15.37
2022-12-17T09:49:44.907Z,15.90
2022-12-17T09:52:40.131Z,15.88
2022-12-17T09:55:52.445Z,14.90
2022-12-17T09:58:42.321Z,14.68
2022-12-17T10:01:40.315Z,14.50
2022-12-17T10:04:32.961Z,15.73
2022-12-17T10:07:19.919Z,15.48
2022-12-17T10:10:09.795Z,15.82
2022-12-17T10:12:55.992Z,15.63
2022-12-17T10:15:41.507Z,16.40
2022-12-17T10:18:30.541Z,16.67
2022-12-17T10:21:25.510Z,15.35
2022-12-17T10:24:23.978Z,15.65
2022-12-17T10:27:09.204Z,14.75
2022-12-17T10:29:54.451Z,14.97
2022-12-17T10:32:44.619Z,14.98
2022-12-17T10:35:40.955Z,14.05
2022-12-17T10:38:52.714Z,14.68
2022-12-17T10:41:45.961Z,14.82
2022-12-17T10:44:55.627Z,15.50
2022-12-17T10:47:43.589Z,15.20
2022-12-17T10:50:34.966Z,14.87
2022-12-17T10:53:22.285Z,14.20
2022-12-17T10:56:16.718Z,13.98
2022-12-17T10:59:04.766Z,14.70
2022-12-17T11:01:51.326Z,14.52
2022-12-17T11:04:43.068Z,14.85
2022-12-17T11:07:40.729Z,14.82
2022-12-17T11:10:34.482Z,14.77
2022-12-17T11:13:27.602Z,13.63
2022-12-17T11:16:16.481Z,14.50
2022-12-17T11:19:07.632Z,14.13
2022-12-17T11:22:12.278Z,12.57
2022-12-17T11:25:07.963Z,13.10
2022-12-17T11:28:01.773Z,14.63
2022-12-17T11:30:47.777Z,14.93
2022-12-17T11:33:39.695Z,14.98
2022-12-17T11:36:31.245Z,14.77
2022-12-17T11:39:45.785Z,15.35
2022-12-17T11:42:50.817Z,14.87
2022-12-17T11:45:53.628Z,15.68
2022-12-17T11:49:05.672Z,13.75
2022-12-17T11:52:14.804Z,14.20
2022-12-17T11:55:42.459Z,14.32
2022-12-17T11:58:56.946Z,14.30
2022-12-17T12:01:42.548Z,13.62
2022-12-17T12:04:36.386Z,12.68
2022-12-17T12:07:31.220Z,14.87
2022-12-17T12:10:40.992Z,14.93
2022-12-17T12:13:56.771Z,14.23
2022-12-17T12:17:16.172Z,12.65
2022-12-17T12:20:13.990Z,12.57
2022-12-17T12:23:29.516Z,13.85
2022-12-17T12:26:24.729Z,13.38
2022-12-17T12:29:43.234Z,12.07
2022-12-17T12:32:38.137Z,13.95
2022-12-17T12:35:30.172Z,11.68
2022-12-17T12:38:15.900Z,12.27
2022-12-17T12:41:13.354Z,12.88
2022-12-17T12:44:06.923Z,13.90
2022-12-17T12:47:11.777Z,12.30
2022-12-17T12:50:12.148Z,11.20
2022-12-17T12:52:57.514Z,12.55
2022-12-17T12:55:55.482Z,12.02
2022-12-17T12:58:50.904Z,12.03
2022-12-17T13:01:45.485Z,12.00
2022-12-17T13:04:50.407Z,12.60
2022-12-17T13:07:29.181Z,12.23
2022-12-17T13:09:59.391Z,12.68
2022-12-17T13:12:45.545Z,12.60
2022-12-17T13:15:23.276Z,12.70
2022-12-17T13:18:07.098Z,11.95
2022-12-17T13:20:35.016Z,11.70
2022-12-17T13:23:14.399Z,11.75
2022-12-17T13:25:42.114Z,10.70
2022-12-17T13:28:30.910Z,12.55
2022-12-17T13:31:03.710Z,9.50
2022-12-17T13:33:54.127Z,12.50
2022-12-17T13:36:42.994Z,11.60
2022-12-17T13:39:38.013Z,11.20
2022-12-17T13:42:05.499Z,10.98
2022-12-17T13:44:41.032Z,12.73
2022-12-17T13:47:21.015Z,11.45
2022-12-17T13:50:31.775Z,11.65
2022-12-17T13:52:43.366Z,12.17
2022-12-17T13:55:19.579Z,12.15
2022-12-17T13:57:47.806Z,11.77
2022-12-17T14:00:29.946Z,12.37
2022-12-17T14:02:57.180Z,11.25
2022-12-17T14:05:33.589Z,12.13
2022-12-17T14:08:03.370Z,12.43
2022-12-17T14:10:30.384Z,13.07
2022-12-17T14:13:13.802Z,12.68
2022-12-17T14:15:48.408Z,12.20
2022-12-17T14:18:18.776Z,13.07
2022-12-17T14:20:46.891Z,13.10
2022-12-17T14:23:31.943Z,11.45
2022-12-17T14:25:59.325Z,12.93
2022-12-17T14:28:35.513Z,13.93
2022-12-17T14:31:26.769Z,11.97
2022-12-17T14:34:11.184Z,13.77
2022-12-17T14:36:42.217Z,13.32
2022-12-17T14:39:23.352Z,11.60
2022-12-17T14:42:09.804Z,12.80
2022-12-17T14:44:48.357Z,12.30
2022-12-17T14:47:27.997Z,12.95
2022-12-17T14:49:55.821Z,12.27
2022-12-17T14:52:33.871Z,14.45
2022-12-17T14:55:01.287Z,12.43
2022-12-17T14:57:28.079Z,11.43
2022-12-17T14:59:54.968Z,14.02
2022-12-17T15:02:24.248Z,13.35
2022-12-17T15:04:52.866Z,12.88
2022-12-17T15:07:24.715Z,13.02
2022-12-17T15:09:52.879Z,12.73
2022-12-17T15:12:20.900Z,13.18
2022-12-17T15:14:47.988Z,13.15
2022-12-17T15:17:15.457Z,13.48
2022-12-17T15:19:42.808Z,13.52
2022-12-17T15:22:18.466Z,13.53
2022-12-17T15:24:46.026Z,12.98
2022-12-17T15:27:14.340Z,10.93
2022-12-17T15:29:42.351Z,13.00
2022-12-17T15:32:19.190Z,13.95
2022-12-17T15:34:46.521Z,14.70
2022-12-17T15:37:13.963Z,14.90
2022-12-17T15:39:41.110Z,11.57
2022-12-17T15:42:28.574Z,13.32
2022-12-17T15:44:55.362Z,11.18
2022-12-17T15:47:22.295Z,14.83
2022-12-17T15:49:50.458Z,13.50
2022-12-17T15:52:17.687Z,14.27
2022-12-17T15:54:45.105Z,12.00
2022-12-17T15:57:18.259Z,14.68
2022-12-17T15:59:46.340Z,13.63
2022-12-17T16:02:13.609Z,14.40
2022-12-17T16:04:41.175Z,15.57
2022-12-17T16:07:08.132Z,15.15
2022-12-17T16:09:35.200Z,14.70
2022-12-17T16:12:02.468Z,12.80
2022-12-17T16:14:29.487Z,13.45
2022-12-17T16:16:56.456Z,12.27
2022-12-17T16:19:23.903Z,11.30
2022-12-17T16:21:51.109Z,13.82
2022-12-17T16:24:18.776Z,14.37
2022-12-17T16:26:45.848Z,15.45
2022-12-17T16:29:12.797Z,13.43
2022-12-17T16:31:40.206Z,13.43
2022-12-17T16:34:12.022Z,13.52
2022-12-17T16:36:39.892Z,11.93
2022-12-17T16:39:07.608Z,12.15
2022-12-17T16:41:35.018Z,11.70
2022-12-17T16:44:02.249Z,11.75
2022-12-17T16:46:40.229Z,13.00
2022-12-17T16:49:16.980Z,11.97
2022-12-17T16:51:48.928Z,12.90
2022-12-17T16:54:19.083Z,12.82
2022-12-17T16:56:46.917Z,11.57
2022-12-17T16:59:15.965Z,11.88
2022-12-17T17:01:46.722Z,12.83
2022-12-17T17:04:16.295Z,11.70
2022-12-17T17:06:46.323Z,12.73
2022-12-17T17:09:14.397Z,11.82
2022-12-17T17:11:42.592Z,10.95
2022-12-17T17:14:11.751Z,10.77
2022-12-17T17:16:38.822Z,12.15
2022-12-17T17:19:06.546Z,10.02
2022-12-17T17:21:39.031Z,12.75
2022-12-17T17:24:15.483Z,11.73
2022-12-17T17:26:47.611Z,12.67
2022-12-17T17:29:14.649Z,11.77
2022-12-17T17:34:28.620Z,10.38
2022-12-17T17:36:55.601Z,10.95
2022-12-17T17:39:22.417Z,10.13
2022-12-17T17:41:49.348Z,11.40
2022-12-17T17:44:16.635Z,10.77
2022-12-17T17:46:43.672Z,9.68
2022-12-17T17:49:11.927Z,9.52
2022-12-17T17:54:28.922Z,9.50
2022-12-17T17:56:55.957Z,9.60
2022-12-17T17:59:30.861Z,9.57
2022-12-17T18:02:00.263Z,10.73
2022-12-17T18:04:29.768Z,12.37
2022-12-17T18:09:43.816Z,11.65
2022-12-17T18:12:29.098Z,11.82
2022-12-17T18:17:43.874Z,10.80
2022-12-17T18:20:11.473Z,11.23
2022-12-17T18:22:41.581Z,8.98
2022-12-17T18:25:08.620Z,11.12
2022-12-17T18:27:35.779Z,10.68
2022-12-17T18:30:03.196Z,10.87
2022-12-17T18:32:30.937Z,10.68
2022-12-17T18:34:57.911Z,9.15
2022-12-17T18:37:24.964Z,10.48
2022-12-17T18:39:51.911Z,9.70
2022-12-17T18:42:37.387Z,11.40
2022-12-17T18:45:04.927Z,9.23
2022-12-17T18:47:32.113Z,10.48
2022-12-17T18:49:58.983Z,9.32
2022-12-17T18:52:25.950Z,10.35
2022-12-17T18:54:53.049Z,9.37
2022-12-17T18:57:20.265Z,9.68
2022-12-17T18:59:47.225Z,7.30
2022-12-17T19:02:15.376Z,9.38
2022-12-17T19:04:43.049Z,8.45
2022-12-17T19:07:10.630Z,9.90
2022-12-17T19:09:39.909Z,8.18
2022-12-17T19:12:09.406Z,9.55
2022-12-17T19:14:36.665Z,8.05
2022-12-17T19:17:05.473Z,8.32
2022-12-17T19:19:33.427Z,8.47
2022-12-17T19:22:01.245Z,8.57
2022-12-17T19:24:28.690Z,9.00
2022-12-17T19:26:55.761Z,7.65
2022-12-17T19:29:23.101Z,9.55
2022-12-17T19:31:50.697Z,8.33
2022-12-17T19:34:19.559Z,8.52
2022-12-17T19:36:47.892Z,8.68
2022-12-17T19:39:18.681Z,8.63
2022-12-17T19:41:46.166Z,7.40
2022-12-17T19:44:15.813Z,7.83
2022-12-17T19:46:43.857Z,8.25
2022-12-17T19:49:15.571Z,8.60
2022-12-17T19:51:44.496Z,7.20
2022-12-17T19:54:15.012Z,7.87
2022-12-17T19:56:45.264Z,6.63
2022-12-17T19:59:13.634Z,7.00
2022-12-17T20:01:46.561Z,7.00
2022-12-17T20:04:15.728Z,6.97
2022-12-17T20:06:44.021Z,6.78
2022-12-17T20:09:11.800Z,7.17
2022-12-17T20:11:39.048Z,6.55
2022-12-17T20:14:19.100Z,6.95
2022-12-17T20:16:47.601Z,6.72
2022-12-17T20:19:18.248Z,6.95
2022-12-17T20:21:45.590Z,6.80
2022-12-17T20:24:15.101Z,6.75
2022-12-17T20:26:43.628Z,6.10
2022-12-17T20:29:11.011Z,6.47
2022-12-17T20:31:38.731Z,6.47
2022-12-17T20:34:08.000Z,6.97
2022-12-17T20:36:35.548Z,6.93
2022-12-17T20:39:02.923Z,6.30
2022-12-17T20:41:31.383Z,6.43
2022-12-17T20:44:01.931Z,6.70
2022-12-17T20:46:28.851Z,6.37
2022-12-17T20:48:56.389Z,7.30
2022-12-17T20:51:26.150Z,5.80
2022-12-17T20:53:54.475Z,6.82
2022-12-17T20:56:27.653Z,5.78
2022-12-17T20:58:56.520Z,6.90
2022-12-17T21:01:25.655Z,6.50
2022-12-17T21:03:54.640Z,6.05
2022-12-17T21:06:38.588Z,7.25
2022-12-17T21:09:07.617Z,6.68
2022-12-17T21:11:36.320Z,6.53
2022-12-17T21:14:08.340Z,6.50
2022-12-17T21:16:36.431Z,7.97
2022-12-17T21:19:04.582Z,7.87
2022-12-17T21:21:34.126Z,8.32
2022-12-17T21:24:02.186Z,7.87
2022-12-17T21:26:32.839Z,7.03
2022-12-17T21:29:01.308Z,7.35
2022-12-17T21:31:34.407Z,8.88
2022-12-17T21:34:04.546Z,9.15
2022-12-17T21:36:33.420Z,9.20
2022-12-17T21:39:01.563Z,9.80
2022-12-17T21:41:35.546Z,11.02
2022-12-17T21:44:07.846Z,10.52
2022-12-17T21:46:35.185Z,11.15
2022-12-17T21:49:03.683Z,12.40
2022-12-17T21:51:32.172Z,11.70
2022-12-17T21:54:01.482Z,18.62
2022-12-17T21:56:29.505Z,19.17
2022-12-17T21:58:59.239Z,18.45
2022-12-17T22:01:33.139Z,13.73
2022-12-17T22:04:02.583Z,14.57
2022-12-17T22:06:35.144Z,11.18
2022-12-17T22:09:22.383Z,12.48
2022-12-17T22:12:13.633Z,13.00
2022-12-17T22:14:40.520Z,13.23
2022-12-17T22:17:07.423Z,11.48
2022-12-17T22:19:34.351Z,11.38
2022-12-17T22:22:01.235Z,10.48
2022-12-17T22:24:28.105Z,10.82
2022-12-17T22:27:01.688Z,9.17
2022-12-17T22:29:48.974Z,9.63
2022-12-17T22:32:48.039Z,8.85
2022-12-17T22:36:31.250Z,9.00
2022-12-17T22:41:49.961Z,8.23
2022-12-17T22:43:38.485Z,8.77
2022-12-17T22:44:37.108Z,8.33
2022-12-17T22:46:25.342Z,10.35
2022-12-17T22:48:52.477Z,7.90
2022-12-17T22:51:26.978Z,8.32
2022-12-17T22:54:01.934Z,12.90
2022-12-17T22:56:56.762Z,9.23
2022-12-17T22:59:18.297Z,10.63
2022-12-17T23:01:45.854Z,11.10
2022-12-17T23:04:16.367Z,12.55
2022-12-17T23:06:47.441Z,11.97
2022-12-17T23:09:19.429Z,9.88
2022-12-17T23:11:48.697Z,10.90
2022-12-17T23:14:16.800Z,9.75
2022-12-17T23:16:43.680Z,9.63
2022-12-17T23:19:11.307Z,10.93
2022-12-17T23:21:38.705Z,10.20
2022-12-17T23:24:06.506Z,10.27
2022-12-17T23:26:35.991Z,9.93
2022-12-17T23:29:06.252Z,10.10
2022-12-17T23:31:36.072Z,10.47
2022-12-17T23:34:03.646Z,9.68
2022-12-17T23:36:30.509Z,10.65
2022-12-17T23:38:58.224Z,11.12
2022-12-17T23:41:28.004Z,10.63
2022-12-17T23:43:55.726Z,10.60
2022-12-17T23:46:24.008Z,9.63
2022-12-17T23:48:51.626Z,10.05
2022-12-17T23:51:21.955Z,11.23
2022-12-17T23:53:49.205Z,10.15
2022-12-17T23:56:26.193Z,11.17
2022-12-17T23:58:55.397Z,10.65
